sensor_id;sensor_type;location;lat;lon;timestamp;P1;durP1;ratioP1;P2;durP2;ratioP2
8058;SDS011;75058;42.668;23.396;2024-03-07T00:00:07;30.38;;;17.83;;
8058;SDS011;75058;42.668;23.396;2024-03-07T00:02:43;30.80;;;16.80;;
8058;SDS011;75058;42.668;23.396;2024-03-07T00:05:12;29.95;;;17.38;;
8058;SDS011;75058;42.668;23.396;2024-03-07T00:07:40;36.15;;;19.70;;
8058;SDS011;75058;42.668;23.396;2024-03-07T00:10:08;32.47;;;18.10;;
8058;SDS011;75058;42.668;23.396;2024-03-07T00:12:39;30.73;;;17.08;;
8058;SDS011;75058;42.668;23.396;2024-03-07T00:15:08;39.65;;;18.65;;
8058;SDS011;75058;42.668;23.396;2024-03-07T00:17:40;33.58;;;18.48;;
8058;SDS011;75058;42.668;23.396;2024-03-07T00:20:09;32.28;;;17.92;;
8058;SDS011;75058;42.668;23.396;2024-03-07T00:22:42;39.55;;;21.25;;
8058;SDS011;75058;42.668;23.396;2024-03-07T00:25:10;32.17;;;18.52;;
8058;SDS011;75058;42.668;23.396;2024-03-07T00:27:42;35.25;;;16.92;;
8058;SDS011;75058;42.668;23.396;2024-03-07T00:30:12;31.13;;;14.32;;
8058;SDS011;75058;42.668;23.396;2024-03-07T00:32:45;40.03;;;18.50;;
8058;SDS011;75058;42.668;23.396;2024-03-07T00:35:14;39.13;;;19.42;;
8058;SDS011;75058;42.668;23.396;2024-03-07T00:37:42;31.30;;;17.05;;
8058;SDS011;75058;42.668;23.396;2024-03-07T00:40:11;37.33;;;18.50;;
8058;SDS011;75058;42.668;23.396;2024-03-07T00:42:39;33.78;;;19.13;;
8058;SDS011;75058;42.668;23.396;2024-03-07T00:45:08;31.88;;;18.55;;
8058;SDS011;75058;42.668;23.396;2024-03-07T00:47:36;30.48;;;15.48;;
8058;SDS011;75058;42.668;23.396;2024-03-07T00:50:05;39.25;;;18.20;;
8058;SDS011;75058;42.668;23.396;2024-03-07T00:52:35;36.05;;;19.42;;
8058;SDS011;75058;42.668;23.396;2024-03-07T00:55:04;27.60;;;15.90;;
8058;SDS011;75058;42.668;23.396;2024-03-07T00:57:35;31.88;;;16.77;;
8058;SDS011;75058;42.668;23.396;2024-03-07T01:00:03;28.92;;;14.88;;
8058;SDS011;75058;42.668;23.396;2024-03-07T01:02:33;26.25;;;14.98;;
8058;SDS011;75058;42.668;23.396;2024-03-07T01:05:01;31.40;;;17.45;;
8058;SDS011;75058;42.668;23.396;2024-03-07T01:07:34;28.70;;;16.63;;
8058;SDS011;75058;42.668;23.396;2024-03-07T01:10:03;36.38;;;18.20;;
8058;SDS011;75058;42.668;23.396;2024-03-07T01:12:32;27.20;;;16.23;;
8058;SDS011;75058;42.668;23.396;2024-03-07T01:15:01;28.50;;;15.90;;
8058;SDS011;75058;42.668;23.396;2024-03-07T01:17:31;33.65;;;16.35;;
8058;SDS011;75058;42.668;23.396;2024-03-07T01:20:01;28.08;;;15.50;;
8058;SDS011;75058;42.668;23.396;2024-03-07T01:22:30;34.15;;;17.40;;
8058;SDS011;75058;42.668;23.396;2024-03-07T01:24:58;23.95;;;11.75;;
8058;SDS011;75058;42.668;23.396;2024-03-07T01:27:26;30.90;;;15.55;;
8058;SDS011;75058;42.668;23.396;2024-03-07T01:29:55;32.83;;;18.08;;
8058;SDS011;75058;42.668;23.396;2024-03-07T01:32:24;32.35;;;13.77;;
8058;SDS011;75058;42.668;23.396;2024-03-07T01:34:53;26.60;;;15.07;;
8058;SDS011;75058;42.668;23.396;2024-03-07T01:37:21;31.83;;;15.88;;
8058;SDS011;75058;42.668;23.396;2024-03-07T01:39:49;28.55;;;15.65;;
8058;SDS011;75058;42.668;23.396;2024-03-07T01:42:17;25.75;;;14.68;;
8058;SDS011;75058;42.668;23.396;2024-03-07T01:44:46;26.92;;;15.82;;
8058;SDS011;75058;42.668;23.396;2024-03-07T01:47:14;31.15;;;16.45;;
8058;SDS011;75058;42.668;23.396;2024-03-07T01:49:42;27.10;;;12.25;;
8058;SDS011;75058;42.668;23.396;2024-03-07T01:52:11;24.15;;;14.93;;
8058;SDS011;75058;42.668;23.396;2024-03-07T01:54:40;24.98;;;14.10;;
8058;SDS011;75058;42.668;23.396;2024-03-07T01:57:08;30.75;;;15.55;;
8058;SDS011;75058;42.668;23.396;2024-03-07T01:59:37;26.73;;;14.27;;
8058;SDS011;75058;42.668;23.396;2024-03-07T02:02:06;25.70;;;14.13;;
8058;SDS011;75058;42.668;23.396;2024-03-07T02:04:34;28.33;;;15.98;;
8058;SDS011;75058;42.668;23.396;2024-03-07T02:07:02;27.92;;;13.75;;
8058;SDS011;75058;42.668;23.396;2024-03-07T02:09:31;27.17;;;14.65;;
8058;SDS011;75058;42.668;23.396;2024-03-07T02:11:59;31.73;;;14.52;;
8058;SDS011;75058;42.668;23.396;2024-03-07T02:14:28;34.20;;;16.88;;
8058;SDS011;75058;42.668;23.396;2024-03-07T02:16:56;28.88;;;15.38;;
8058;SDS011;75058;42.668;23.396;2024-03-07T02:19:24;25.42;;;12.40;;
8058;SDS011;75058;42.668;23.396;2024-03-07T02:21:54;16.75;;;9.02;;
8058;SDS011;75058;42.668;23.396;2024-03-07T02:24:22;26.02;;;12.93;;
8058;SDS011;75058;42.668;23.396;2024-03-07T02:26:50;14.73;;;8.40;;
8058;SDS011;75058;42.668;23.396;2024-03-07T02:29:19;13.93;;;7.60;;
8058;SDS011;75058;42.668;23.396;2024-03-07T02:31:47;13.70;;;7.05;;
8058;SDS011;75058;42.668;23.396;2024-03-07T02:34:15;11.63;;;6.00;;
8058;SDS011;75058;42.668;23.396;2024-03-07T02:36:43;7.25;;;4.57;;
8058;SDS011;75058;42.668;23.396;2024-03-07T02:39:12;8.25;;;4.70;;
8058;SDS011;75058;42.668;23.396;2024-03-07T02:41:40;5.45;;;3.80;;
8058;SDS011;75058;42.668;23.396;2024-03-07T02:44:08;8.73;;;4.32;;
8058;SDS011;75058;42.668;23.396;2024-03-07T02:46:36;5.50;;;3.53;;
8058;SDS011;75058;42.668;23.396;2024-03-07T02:49:05;10.13;;;5.00;;
8058;SDS011;75058;42.668;23.396;2024-03-07T02:51:33;6.60;;;3.65;;
8058;SDS011;75058;42.668;23.396;2024-03-07T02:54:01;5.88;;;3.03;;
8058;SDS011;75058;42.668;23.396;2024-03-07T02:56:33;4.72;;;3.22;;
8058;SDS011;75058;42.668;23.396;2024-03-07T02:59:01;5.20;;;2.78;;
8058;SDS011;75058;42.668;23.396;2024-03-07T03:01:30;3.05;;;1.92;;
8058;SDS011;75058;42.668;23.396;2024-03-07T03:03:58;3.30;;;2.00;;
8058;SDS011;75058;42.668;23.396;2024-03-07T03:06:26;3.20;;;1.67;;
8058;SDS011;75058;42.668;23.396;2024-03-07T03:08:54;3.63;;;1.70;;
8058;SDS011;75058;42.668;23.396;2024-03-07T03:11:22;2.67;;;1.90;;
8058;SDS011;75058;42.668;23.396;2024-03-07T03:13:53;5.25;;;2.30;;
8058;SDS011;75058;42.668;23.396;2024-03-07T03:16:22;3.53;;;2.10;;
8058;SDS011;75058;42.668;23.396;2024-03-07T03:19:10;3.95;;;2.20;;
8058;SDS011;75058;42.668;23.396;2024-03-07T03:21:38;4.25;;;2.47;;
8058;SDS011;75058;42.668;23.396;2024-03-07T03:24:07;4.30;;;2.30;;
8058;SDS011;75058;42.668;23.396;2024-03-07T03:26:35;3.53;;;1.83;;
8058;SDS011;75058;42.668;23.396;2024-03-07T03:29:05;3.45;;;1.90;;
8058;SDS011;75058;42.668;23.396;2024-03-07T03:31:34;3.42;;;1.70;;
8058;SDS011;75058;42.668;23.396;2024-03-07T03:34:01;2.35;;;0.90;;
8058;SDS011;75058;42.668;23.396;2024-03-07T03:36:29;1.10;;;0.50;;
8058;SDS011;75058;42.668;23.396;2024-03-07T03:38:57;0.65;;;0.50;;
8058;SDS011;75058;42.668;23.396;2024-03-07T03:41:25;0.30;;;0.30;;
8058;SDS011;75058;42.668;23.396;2024-03-07T03:43:53;1.10;;;0.32;;
8058;SDS011;75058;42.668;23.396;2024-03-07T03:46:24;0.63;;;0.40;;
8058;SDS011;75058;42.668;23.396;2024-03-07T03:48:51;1.15;;;0.70;;
8058;SDS011;75058;42.668;23.396;2024-03-07T03:51:19;0.30;;;0.30;;
8058;SDS011;75058;42.668;23.396;2024-03-07T03:53:48;0.82;;;0.50;;
8058;SDS011;75058;42.668;23.396;2024-03-07T03:56:18;1.00;;;0.50;;
8058;SDS011;75058;42.668;23.396;2024-03-07T03:58:46;0.50;;;0.32;;
8058;SDS011;75058;42.668;23.396;2024-03-07T04:01:14;2.38;;;0.75;;
8058;SDS011;75058;42.668;23.396;2024-03-07T04:03:44;2.03;;;0.75;;
8058;SDS011;75058;42.668;23.396;2024-03-07T04:06:13;1.60;;;0.70;;
8058;SDS011;75058;42.668;23.396;2024-03-07T04:08:41;0.90;;;0.50;;
8058;SDS011;75058;42.668;23.396;2024-03-07T04:11:09;1.55;;;0.95;;
8058;SDS011;75058;42.668;23.396;2024-03-07T04:13:38;3.45;;;1.20;;
8058;SDS011;75058;42.668;23.396;2024-03-07T04:16:06;2.80;;;1.67;;
8058;SDS011;75058;42.668;23.396;2024-03-07T04:18:35;2.72;;;1.33;;
8058;SDS011;75058;42.668;23.396;2024-03-07T04:21:04;1.42;;;1.02;;
8058;SDS011;75058;42.668;23.396;2024-03-07T04:23:33;1.38;;;1.08;;
8058;SDS011;75058;42.668;23.396;2024-03-07T04:26:02;2.15;;;1.30;;
8058;SDS011;75058;42.668;23.396;2024-03-07T04:28:30;3.47;;;1.58;;
8058;SDS011;75058;42.668;23.396;2024-03-07T04:30:58;1.30;;;0.82;;
8058;SDS011;75058;42.668;23.396;2024-03-07T04:33:26;1.85;;;1.05;;
8058;SDS011;75058;42.668;23.396;2024-03-07T04:35:55;3.03;;;1.75;;
8058;SDS011;75058;42.668;23.396;2024-03-07T04:38:24;3.47;;;1.95;;
8058;SDS011;75058;42.668;23.396;2024-03-07T04:40:54;3.45;;;1.98;;
8058;SDS011;75058;42.668;23.396;2024-03-07T04:43:23;4.72;;;2.05;;
8058;SDS011;75058;42.668;23.396;2024-03-07T04:45:52;4.15;;;2.30;;
8058;SDS011;75058;42.668;23.396;2024-03-07T04:48:21;3.25;;;2.10;;
8058;SDS011;75058;42.668;23.396;2024-03-07T04:50:49;3.42;;;2.33;;
8058;SDS011;75058;42.668;23.396;2024-03-07T04:53:17;5.53;;;2.67;;
8058;SDS011;75058;42.668;23.396;2024-03-07T04:55:46;3.83;;;2.42;;
8058;SDS011;75058;42.668;23.396;2024-03-07T04:58:14;4.30;;;2.67;;
8058;SDS011;75058;42.668;23.396;2024-03-07T05:00:42;4.70;;;2.75;;
8058;SDS011;75058;42.668;23.396;2024-03-07T05:03:10;4.90;;;3.00;;
8058;SDS011;75058;42.668;23.396;2024-03-07T05:05:38;6.28;;;3.60;;
8058;SDS011;75058;42.668;23.396;2024-03-07T05:08:07;3.40;;;2.17;;
8058;SDS011;75058;42.668;23.396;2024-03-07T05:10:37;3.53;;;2.55;;
8058;SDS011;75058;42.668;23.396;2024-03-07T05:13:06;5.10;;;2.72;;
8058;SDS011;75058;42.668;23.396;2024-03-07T05:15:34;3.53;;;2.40;;
8058;SDS011;75058;42.668;23.396;2024-03-07T05:18:06;3.80;;;2.47;;
8058;SDS011;75058;42.668;23.396;2024-03-07T05:20:35;3.92;;;2.78;;
8058;SDS011;75058;42.668;23.396;2024-03-07T05:23:03;4.03;;;2.90;;
8058;SDS011;75058;42.668;23.396;2024-03-07T05:25:32;4.00;;;2.70;;
8058;SDS011;75058;42.668;23.396;2024-03-07T05:28:00;4.90;;;3.15;;
8058;SDS011;75058;42.668;23.396;2024-03-07T05:30:30;5.88;;;3.08;;
8058;SDS011;75058;42.668;23.396;2024-03-07T05:32:59;7.15;;;3.22;;
8058;SDS011;75058;42.668;23.396;2024-03-07T05:35:28;6.82;;;3.10;;
8058;SDS011;75058;42.668;23.396;2024-03-07T05:37:57;5.47;;;2.55;;
8058;SDS011;75058;42.668;23.396;2024-03-07T05:40:26;5.40;;;3.60;;
8058;SDS011;75058;42.668;23.396;2024-03-07T05:42:54;5.90;;;3.10;;
8058;SDS011;75058;42.668;23.396;2024-03-07T05:45:23;4.63;;;3.13;;
8058;SDS011;75058;42.668;23.396;2024-03-07T05:47:52;8.25;;;3.85;;
8058;SDS011;75058;42.668;23.396;2024-03-07T05:50:20;5.95;;;3.33;;
8058;SDS011;75058;42.668;23.396;2024-03-07T05:52:48;8.00;;;4.13;;
8058;SDS011;75058;42.668;23.396;2024-03-07T05:55:16;6.07;;;3.80;;
8058;SDS011;75058;42.668;23.396;2024-03-07T05:57:46;8.20;;;4.75;;
8058;SDS011;75058;42.668;23.396;2024-03-07T06:00:14;7.68;;;4.63;;
8058;SDS011;75058;42.668;23.396;2024-03-07T06:02:56;6.50;;;3.83;;
8058;SDS011;75058;42.668;23.396;2024-03-07T06:05:24;6.97;;;4.28;;
8058;SDS011;75058;42.668;23.396;2024-03-07T06:07:53;4.80;;;3.45;;
8058;SDS011;75058;42.668;23.396;2024-03-07T06:10:23;3.92;;;2.75;;
8058;SDS011;75058;42.668;23.396;2024-03-07T06:12:51;4.60;;;2.88;;
8058;SDS011;75058;42.668;23.396;2024-03-07T06:15:35;6.43;;;2.70;;
8058;SDS011;75058;42.668;23.396;2024-03-07T06:18:06;5.22;;;3.20;;
8058;SDS011;75058;42.668;23.396;2024-03-07T06:20:37;6.88;;;3.78;;
8058;SDS011;75058;42.668;23.396;2024-03-07T06:23:05;5.53;;;3.10;;
8058;SDS011;75058;42.668;23.396;2024-03-07T06:25:34;10.55;;;4.53;;
8058;SDS011;75058;42.668;23.396;2024-03-07T06:28:04;7.45;;;3.92;;
8058;SDS011;75058;42.668;23.396;2024-03-07T06:30:38;6.72;;;2.95;;
8058;SDS011;75058;42.668;23.396;2024-03-07T06:33:08;4.72;;;3.00;;
8058;SDS011;75058;42.668;23.396;2024-03-07T06:35:37;5.07;;;2.78;;
8058;SDS011;75058;42.668;23.396;2024-03-07T06:38:06;4.10;;;2.45;;
8058;SDS011;75058;42.668;23.396;2024-03-07T06:40:35;7.07;;;3.78;;
8058;SDS011;75058;42.668;23.396;2024-03-07T06:43:03;6.00;;;3.00;;
8058;SDS011;75058;42.668;23.396;2024-03-07T06:45:33;6.43;;;3.40;;
8058;SDS011;75058;42.668;23.396;2024-03-07T06:48:02;3.33;;;1.98;;
8058;SDS011;75058;42.668;23.396;2024-03-07T06:50:32;4.57;;;2.15;;
8058;SDS011;75058;42.668;23.396;2024-03-07T06:53:04;4.75;;;2.45;;
8058;SDS011;75058;42.668;23.396;2024-03-07T06:55:35;4.88;;;2.63;;
8058;SDS011;75058;42.668;23.396;2024-03-07T06:58:03;6.30;;;3.05;;
8058;SDS011;75058;42.668;23.396;2024-03-07T07:00:32;5.75;;;3.13;;
8058;SDS011;75058;42.668;23.396;2024-03-07T07:03:04;7.18;;;3.30;;
8058;SDS011;75058;42.668;23.396;2024-03-07T07:05:38;4.35;;;2.90;;
8058;SDS011;75058;42.668;23.396;2024-03-07T07:08:07;6.50;;;3.47;;
8058;SDS011;75058;42.668;23.396;2024-03-07T07:10:35;4.90;;;2.38;;
8058;SDS011;75058;42.668;23.396;2024-03-07T07:13:03;7.60;;;3.25;;
8058;SDS011;75058;42.668;23.396;2024-03-07T07:15:31;4.70;;;2.70;;
8058;SDS011;75058;42.668;23.396;2024-03-07T07:18:01;6.90;;;2.97;;
8058;SDS011;75058;42.668;23.396;2024-03-07T07:20:29;6.55;;;2.83;;
8058;SDS011;75058;42.668;23.396;2024-03-07T07:22:58;5.18;;;2.88;;
8058;SDS011;75058;42.668;23.396;2024-03-07T07:25:28;6.43;;;2.90;;
8058;SDS011;75058;42.668;23.396;2024-03-07T07:27:56;3.65;;;2.50;;
8058;SDS011;75058;42.668;23.396;2024-03-07T07:30:24;4.78;;;2.65;;
8058;SDS011;75058;42.668;23.396;2024-03-07T07:32:53;5.70;;;2.83;;
8058;SDS011;75058;42.668;23.396;2024-03-07T07:35:22;6.38;;;2.78;;
8058;SDS011;75058;42.668;23.396;2024-03-07T07:37:51;4.20;;;2.22;;
8058;SDS011;75058;42.668;23.396;2024-03-07T07:40:24;4.72;;;2.50;;
8058;SDS011;75058;42.668;23.396;2024-03-07T07:42:54;4.22;;;2.22;;
8058;SDS011;75058;42.668;23.396;2024-03-07T07:45:23;2.70;;;1.77;;
8058;SDS011;75058;42.668;23.396;2024-03-07T07:47:52;3.03;;;1.83;;
8058;SDS011;75058;42.668;23.396;2024-03-07T07:50:22;3.78;;;2.00;;
8058;SDS011;75058;42.668;23.396;2024-03-07T07:52:53;3.22;;;2.30;;
8058;SDS011;75058;42.668;23.396;2024-03-07T07:55:23;5.32;;;2.03;;
8058;SDS011;75058;42.668;23.396;2024-03-07T07:57:53;2.22;;;1.60;;
8058;SDS011;75058;42.668;23.396;2024-03-07T08:00:22;8.63;;;3.88;;
8058;SDS011;75058;42.668;23.396;2024-03-07T08:02:51;10.57;;;3.30;;
8058;SDS011;75058;42.668;23.396;2024-03-07T08:05:21;6.60;;;2.55;;
8058;SDS011;75058;42.668;23.396;2024-03-07T08:07:50;5.93;;;2.95;;
8058;SDS011;75058;42.668;23.396;2024-03-07T08:10:19;6.97;;;3.97;;
8058;SDS011;75058;42.668;23.396;2024-03-07T08:12:51;4.47;;;2.08;;
8058;SDS011;75058;42.668;23.396;2024-03-07T08:15:19;5.20;;;2.25;;
8058;SDS011;75058;42.668;23.396;2024-03-07T08:17:47;8.75;;;2.60;;
8058;SDS011;75058;42.668;23.396;2024-03-07T08:20:17;2.15;;;1.25;;
8058;SDS011;75058;42.668;23.396;2024-03-07T08:22:47;2.22;;;1.10;;
8058;SDS011;75058;42.668;23.396;2024-03-07T08:25:18;2.33;;;1.42;;
8058;SDS011;75058;42.668;23.396;2024-03-07T08:27:47;6.40;;;2.60;;
8058;SDS011;75058;42.668;23.396;2024-03-07T08:30:21;3.70;;;1.70;;
8058;SDS011;75058;42.668;23.396;2024-03-07T08:32:49;6.90;;;3.25;;
8058;SDS011;75058;42.668;23.396;2024-03-07T08:35:19;5.57;;;3.20;;
8058;SDS011;75058;42.668;23.396;2024-03-07T08:37:48;4.43;;;2.30;;
8058;SDS011;75058;42.668;23.396;2024-03-07T08:40:21;3.70;;;2.22;;
8058;SDS011;75058;42.668;23.396;2024-03-07T08:42:55;7.40;;;3.83;;
8058;SDS011;75058;42.668;23.396;2024-03-07T08:45:25;13.57;;;5.57;;
8058;SDS011;75058;42.668;23.396;2024-03-07T08:47:54;11.20;;;5.07;;
8058;SDS011;75058;42.668;23.396;2024-03-07T08:50:25;5.72;;;2.50;;
8058;SDS011;75058;42.668;23.396;2024-03-07T08:52:55;1.33;;;0.90;;
8058;SDS011;75058;42.668;23.396;2024-03-07T08:55:23;4.47;;;1.80;;
8058;SDS011;75058;42.668;23.396;2024-03-07T08:57:53;6.32;;;3.53;;
8058;SDS011;75058;42.668;23.396;2024-03-07T09:00:22;5.63;;;2.90;;
8058;SDS011;75058;42.668;23.396;2024-03-07T09:02:54;4.68;;;2.78;;
8058;SDS011;75058;42.668;23.396;2024-03-07T09:05:26;4.65;;;3.35;;
8058;SDS011;75058;42.668;23.396;2024-03-07T09:07:56;5.55;;;2.22;;
8058;SDS011;75058;42.668;23.396;2024-03-07T09:10:23;5.97;;;2.50;;
8058;SDS011;75058;42.668;23.396;2024-03-07T09:12:52;3.50;;;2.10;;
8058;SDS011;75058;42.668;23.396;2024-03-07T09:15:21;6.40;;;2.40;;
8058;SDS011;75058;42.668;23.396;2024-03-07T09:17:50;10.80;;;3.55;;
8058;SDS011;75058;42.668;23.396;2024-03-07T09:20:21;6.80;;;3.15;;
8058;SDS011;75058;42.668;23.396;2024-03-07T09:22:50;8.10;;;3.53;;
8058;SDS011;75058;42.668;23.396;2024-03-07T09:25:22;8.90;;;3.95;;
8058;SDS011;75058;42.668;23.396;2024-03-07T09:27:51;10.10;;;4.22;;
8058;SDS011;75058;42.668;23.396;2024-03-07T09:30:20;2.42;;;1.90;;
8058;SDS011;75058;42.668;23.396;2024-03-07T09:32:52;5.88;;;3.45;;
8058;SDS011;75058;42.668;23.396;2024-03-07T09:35:23;4.60;;;2.90;;
8058;SDS011;75058;42.668;23.396;2024-03-07T09:37:51;7.60;;;4.15;;
8058;SDS011;75058;42.668;23.396;2024-03-07T09:40:20;2.67;;;1.67;;
8058;SDS011;75058;42.668;23.396;2024-03-07T09:42:51;4.45;;;1.90;;
8058;SDS011;75058;42.668;23.396;2024-03-07T09:45:21;3.57;;;2.40;;
8058;SDS011;75058;42.668;23.396;2024-03-07T09:47:52;2.80;;;1.80;;
8058;SDS011;75058;42.668;23.396;2024-03-07T09:50:21;4.03;;;2.22;;
8058;SDS011;75058;42.668;23.396;2024-03-07T09:52:52;3.85;;;2.42;;
8058;SDS011;75058;42.668;23.396;2024-03-07T09:55:21;2.97;;;2.00;;
8058;SDS011;75058;42.668;23.396;2024-03-07T09:57:52;3.70;;;2.40;;
8058;SDS011;75058;42.668;23.396;2024-03-07T10:00:23;4.35;;;2.45;;
8058;SDS011;75058;42.668;23.396;2024-03-07T10:02:56;3.90;;;2.28;;
8058;SDS011;75058;42.668;23.396;2024-03-07T10:05:27;6.68;;;2.88;;
8058;SDS011;75058;42.668;23.396;2024-03-07T10:07:58;8.93;;;3.50;;
8058;SDS011;75058;42.668;23.396;2024-03-07T10:10:27;5.85;;;2.42;;
8058;SDS011;75058;42.668;23.396;2024-03-07T10:12:57;4.85;;;2.35;;
8058;SDS011;75058;42.668;23.396;2024-03-07T10:15:27;6.93;;;2.97;;
8058;SDS011;75058;42.668;23.396;2024-03-07T10:17:56;3.15;;;1.75;;
8058;SDS011;75058;42.668;23.396;2024-03-07T10:20:24;4.32;;;2.33;;
8058;SDS011;75058;42.668;23.396;2024-03-07T10:22:53;2.40;;;1.52;;
8058;SDS011;75058;42.668;23.396;2024-03-07T10:25:22;4.35;;;2.33;;
8058;SDS011;75058;42.668;23.396;2024-03-07T10:27:53;3.95;;;2.30;;
8058;SDS011;75058;42.668;23.396;2024-03-07T10:30:21;3.03;;;1.67;;
8058;SDS011;75058;42.668;23.396;2024-03-07T10:32:51;4.93;;;2.03;;
8058;SDS011;75058;42.668;23.396;2024-03-07T10:35:22;5.28;;;2.65;;
8058;SDS011;75058;42.668;23.396;2024-03-07T10:37:53;11.65;;;4.72;;
8058;SDS011;75058;42.668;23.396;2024-03-07T10:40:22;5.32;;;2.88;;
8058;SDS011;75058;42.668;23.396;2024-03-07T10:42:55;2.88;;;2.20;;
8058;SDS011;75058;42.668;23.396;2024-03-07T10:45:24;4.22;;;1.80;;
8058;SDS011;75058;42.668;23.396;2024-03-07T10:47:57;4.55;;;2.20;;
8058;SDS011;75058;42.668;23.396;2024-03-07T10:50:30;3.25;;;2.05;;
8058;SDS011;75058;42.668;23.396;2024-03-07T10:53:13;6.40;;;2.50;;
8058;SDS011;75058;42.668;23.396;2024-03-07T10:55:53;7.35;;;3.55;;
8058;SDS011;75058;42.668;23.396;2024-03-07T10:58:38;3.55;;;1.98;;
8058;SDS011;75058;42.668;23.396;2024-03-07T11:01:14;4.68;;;2.50;;
8058;SDS011;75058;42.668;23.396;2024-03-07T11:03:47;4.55;;;2.28;;
8058;SDS011;75058;42.668;23.396;2024-03-07T11:06:18;3.80;;;2.05;;
8058;SDS011;75058;42.668;23.396;2024-03-07T11:08:49;6.65;;;2.45;;
8058;SDS011;75058;42.668;23.396;2024-03-07T11:11:19;6.45;;;3.15;;
8058;SDS011;75058;42.668;23.396;2024-03-07T11:13:49;7.82;;;3.90;;
8058;SDS011;75058;42.668;23.396;2024-03-07T11:16:20;5.57;;;3.67;;
8058;SDS011;75058;42.668;23.396;2024-03-07T11:21:47;4.00;;;2.50;;
8058;SDS011;75058;42.668;23.396;2024-03-07T11:24:27;6.70;;;3.65;;
8058;SDS011;75058;42.668;23.396;2024-03-07T11:26:57;11.13;;;3.95;;
8058;SDS011;75058;42.668;23.396;2024-03-07T11:32:20;4.72;;;2.00;;
8058;SDS011;75058;42.668;23.396;2024-03-07T11:34:50;4.50;;;2.80;;
8058;SDS011;75058;42.668;23.396;2024-03-07T11:37:36;6.13;;;3.15;;
8058;SDS011;75058;42.668;23.396;2024-03-07T11:40:09;6.20;;;3.10;;
8058;SDS011;75058;42.668;23.396;2024-03-07T11:42:46;7.10;;;3.47;;
8058;SDS011;75058;42.668;23.396;2024-03-07T11:45:15;5.07;;;3.22;;
8058;SDS011;75058;42.668;23.396;2024-03-07T11:47:52;3.95;;;2.55;;
8058;SDS011;75058;42.668;23.396;2024-03-07T11:50:27;5.80;;;3.45;;
8058;SDS011;75058;42.668;23.396;2024-03-07T11:52:55;5.60;;;2.80;;
8058;SDS011;75058;42.668;23.396;2024-03-07T11:55:25;4.43;;;3.00;;
8058;SDS011;75058;42.668;23.396;2024-03-07T11:57:55;5.78;;;2.97;;
8058;SDS011;75058;42.668;23.396;2024-03-07T12:00:23;8.73;;;4.60;;
8058;SDS011;75058;42.668;23.396;2024-03-07T12:02:57;3.85;;;2.80;;
8058;SDS011;75058;42.668;23.396;2024-03-07T12:05:25;8.95;;;4.18;;
8058;SDS011;75058;42.668;23.396;2024-03-07T12:07:55;3.83;;;2.58;;
8058;SDS011;75058;42.668;23.396;2024-03-07T12:10:25;5.35;;;3.33;;
8058;SDS011;75058;42.668;23.396;2024-03-07T12:12:54;7.55;;;4.10;;
8058;SDS011;75058;42.668;23.396;2024-03-07T12:15:23;6.82;;;3.70;;
8058;SDS011;75058;42.668;23.396;2024-03-07T12:17:51;8.35;;;3.70;;
8058;SDS011;75058;42.668;23.396;2024-03-07T12:20:20;9.02;;;4.13;;
8058;SDS011;75058;42.668;23.396;2024-03-07T12:22:58;8.60;;;3.15;;
8058;SDS011;75058;42.668;23.396;2024-03-07T12:25:30;11.48;;;3.40;;
8058;SDS011;75058;42.668;23.396;2024-03-07T12:27:59;6.80;;;4.25;;
8058;SDS011;75058;42.668;23.396;2024-03-07T12:30:32;7.40;;;3.67;;
8058;SDS011;75058;42.668;23.396;2024-03-07T12:33:02;7.72;;;4.45;;
8058;SDS011;75058;42.668;23.396;2024-03-07T12:35:34;12.82;;;5.38;;
8058;SDS011;75058;42.668;23.396;2024-03-07T12:38:03;10.48;;;4.30;;
8058;SDS011;75058;42.668;23.396;2024-03-07T12:40:33;13.38;;;7.72;;
8058;SDS011;75058;42.668;23.396;2024-03-07T12:43:12;17.13;;;7.95;;
8058;SDS011;75058;42.668;23.396;2024-03-07T12:45:42;18.60;;;6.35;;
8058;SDS011;75058;42.668;23.396;2024-03-07T12:48:11;8.00;;;5.20;;
8058;SDS011;75058;42.668;23.396;2024-03-07T12:50:41;10.15;;;5.80;;
8058;SDS011;75058;42.668;23.396;2024-03-07T12:53:09;13.80;;;5.90;;
8058;SDS011;75058;42.668;23.396;2024-03-07T12:55:40;7.32;;;4.47;;
8058;SDS011;75058;42.668;23.396;2024-03-07T12:58:09;12.25;;;5.05;;
8058;SDS011;75058;42.668;23.396;2024-03-07T13:00:38;7.20;;;4.57;;
8058;SDS011;75058;42.668;23.396;2024-03-07T13:03:07;7.22;;;3.78;;
8058;SDS011;75058;42.668;23.396;2024-03-07T13:05:36;4.85;;;2.92;;
8058;SDS011;75058;42.668;23.396;2024-03-07T13:08:07;6.35;;;3.38;;
8058;SDS011;75058;42.668;23.396;2024-03-07T13:10:39;7.55;;;3.83;;
8058;SDS011;75058;42.668;23.396;2024-03-07T13:13:08;4.78;;;3.08;;
8058;SDS011;75058;42.668;23.396;2024-03-07T13:15:37;7.43;;;4.72;;
8058;SDS011;75058;42.668;23.396;2024-03-07T13:18:06;5.43;;;3.10;;
8058;SDS011;75058;42.668;23.396;2024-03-07T13:20:35;6.85;;;3.72;;
8058;SDS011;75058;42.668;23.396;2024-03-07T13:23:03;5.32;;;2.83;;
8058;SDS011;75058;42.668;23.396;2024-03-07T13:25:32;7.50;;;4.20;;
8058;SDS011;75058;42.668;23.396;2024-03-07T13:28:02;6.55;;;3.75;;
8058;SDS011;75058;42.668;23.396;2024-03-07T13:30:34;4.88;;;3.05;;
8058;SDS011;75058;42.668;23.396;2024-03-07T13:33:02;5.82;;;3.47;;
8058;SDS011;75058;42.668;23.396;2024-03-07T13:35:32;5.88;;;3.47;;
8058;SDS011;75058;42.668;23.396;2024-03-07T13:38:00;6.28;;;3.00;;
8058;SDS011;75058;42.668;23.396;2024-03-07T13:40:28;11.90;;;3.67;;
8058;SDS011;75058;42.668;23.396;2024-03-07T13:42:57;7.03;;;3.30;;
8058;SDS011;75058;42.668;23.396;2024-03-07T13:45:28;6.10;;;3.42;;
8058;SDS011;75058;42.668;23.396;2024-03-07T13:47:58;8.27;;;4.43;;
8058;SDS011;75058;42.668;23.396;2024-03-07T13:50:27;6.30;;;3.80;;
8058;SDS011;75058;42.668;23.396;2024-03-07T13:53:19;6.90;;;3.92;;
8058;SDS011;75058;42.668;23.396;2024-03-07T13:56:07;9.18;;;4.18;;
8058;SDS011;75058;42.668;23.396;2024-03-07T13:59:14;6.68;;;3.70;;
8058;SDS011;75058;42.668;23.396;2024-03-07T14:02:04;6.72;;;3.30;;
8058;SDS011;75058;42.668;23.396;2024-03-07T14:04:58;5.22;;;3.00;;
8058;SDS011;75058;42.668;23.396;2024-03-07T14:07:47;7.40;;;3.20;;
8058;SDS011;75058;42.668;23.396;2024-03-07T14:10:39;6.88;;;3.20;;
8058;SDS011;75058;42.668;23.396;2024-03-07T14:13:34;8.68;;;4.30;;
8058;SDS011;75058;42.668;23.396;2024-03-07T14:23:03;8.88;;;5.45;;
8058;SDS011;75058;42.668;23.396;2024-03-07T14:25:46;15.40;;;7.25;;
8058;SDS011;75058;42.668;23.396;2024-03-07T14:28:42;10.93;;;4.57;;
8058;SDS011;75058;42.668;23.396;2024-03-07T14:31:21;10.10;;;5.10;;
8058;SDS011;75058;42.668;23.396;2024-03-07T14:33:54;17.08;;;8.80;;
8058;SDS011;75058;42.668;23.396;2024-03-07T14:36:32;11.40;;;5.57;;
8058;SDS011;75058;42.668;23.396;2024-03-07T14:39:05;15.65;;;7.03;;
8058;SDS011;75058;42.668;23.396;2024-03-07T14:41:43;12.25;;;5.40;;
8058;SDS011;75058;42.668;23.396;2024-03-07T14:44:16;13.57;;;6.32;;
8058;SDS011;75058;42.668;23.396;2024-03-07T14:46:46;12.60;;;4.55;;
8058;SDS011;75058;42.668;23.396;2024-03-07T14:49:17;12.48;;;4.93;;
8058;SDS011;75058;42.668;23.396;2024-03-07T14:51:46;9.07;;;5.22;;
8058;SDS011;75058;42.668;23.396;2024-03-07T14:54:27;11.48;;;5.45;;
8058;SDS011;75058;42.668;23.396;2024-03-07T14:56:55;8.50;;;4.88;;
8058;SDS011;75058;42.668;23.396;2024-03-07T14:59:24;11.32;;;5.50;;
8058;SDS011;75058;42.668;23.396;2024-03-07T15:01:52;11.15;;;6.00;;
8058;SDS011;75058;42.668;23.396;2024-03-07T15:04:22;10.80;;;5.28;;
8058;SDS011;75058;42.668;23.396;2024-03-07T15:06:50;12.55;;;6.32;;
8058;SDS011;75058;42.668;23.396;2024-03-07T15:09:19;14.35;;;6.57;;
8058;SDS011;75058;42.668;23.396;2024-03-07T15:11:48;17.50;;;7.75;;